createdAt,value
2023-05-05T00:02:25.681Z,21.59
2023-05-05T00:04:52.463Z,21.58
2023-05-05T00:07:18.800Z,21.57
2023-05-05T00:09:45.118Z,21.56
2023-05-05T00:12:11.624Z,21.56
2023-05-05T00:14:37.938Z,21.55
2023-05-05T00:17:04.354Z,21.55
2023-05-05T00:19:31.021Z,21.56
2023-05-05T00:21:57.347Z,21.56
2023-05-05T00:24:23.657Z,21.55
2023-05-05T00:26:50.050Z,21.56
2023-05-05T00:29:16.433Z,21.53
2023-05-05T00:31:42.832Z,21.54
2023-05-05T00:34:09.223Z,21.55
2023-05-05T00:36:35.905Z,21.54
2023-05-05T00:39:02.223Z,21.55
2023-05-05T00:41:28.561Z,21.52
2023-05-05T00:43:55.041Z,21.51
2023-05-05T00:46:25.294Z,21.51
2023-05-05T00:48:51.701Z,21.48
2023-05-05T00:51:18.163Z,21.49
2023-05-05T00:53:45.131Z,21.49
2023-05-05T00:56:12.782Z,21.48
2023-05-05T00:58:42.329Z,21.47
2023-05-05T01:01:08.892Z,21.46
2023-05-05T01:03:44.119Z,21.44
2023-05-05T01:06:15.368Z,21.46
2023-05-05T01:08:41.606Z,21.46
2023-05-05T01:11:12.605Z,21.43
2023-05-05T01:13:48.170Z,21.44
2023-05-05T01:16:24.803Z,21.43
2023-05-05T01:18:55.620Z,21.43
2023-05-05T01:21:27.444Z,21.44
2023-05-05T01:24:00.499Z,21.44
2023-05-05T01:26:35.918Z,21.43
2023-05-05T01:29:09.145Z,21.43
2023-05-05T01:31:41.591Z,21.42
2023-05-05T01:34:08.597Z,21.42
2023-05-05T01:36:36.345Z,21.42
2023-05-05T01:39:03.016Z,21.40
2023-05-05T01:41:35.243Z,21.40
2023-05-05T01:44:01.561Z,21.39
2023-05-05T01:46:27.892Z,21.38
2023-05-05T01:48:54.208Z,21.37
2023-05-05T01:51:20.566Z,21.37
2023-05-05T01:53:49.840Z,21.37
2023-05-05T01:56:16.327Z,21.35
2023-05-05T01:58:42.887Z,21.35
2023-05-05T02:01:09.226Z,21.35
2023-05-05T02:03:36.218Z,21.41
2023-05-05T02:06:02.541Z,21.55
2023-05-05T02:08:28.863Z,21.69
2023-05-05T02:10:55.224Z,21.74
2023-05-05T02:13:21.962Z,21.78
2023-05-05T02:15:48.419Z,21.85
2023-05-05T02:18:14.789Z,21.86
2023-05-05T02:20:41.108Z,21.87
2023-05-05T02:23:08.014Z,21.90
2023-05-05T02:25:38.637Z,21.92
2023-05-05T02:28:05.209Z,21.91
2023-05-05T02:30:32.271Z,21.91
2023-05-05T02:33:04.658Z,21.91
2023-05-05T02:35:40.869Z,21.90
2023-05-05T02:38:09.664Z,21.87
2023-05-05T02:40:36.354Z,21.79
2023-05-05T02:43:03.925Z,21.85
2023-05-05T02:45:30.447Z,21.94
2023-05-05T02:47:56.777Z,22.06
2023-05-05T02:50:23.180Z,22.19
2023-05-05T02:52:49.556Z,22.25
2023-05-05T02:55:16.495Z,22.27
2023-05-05T02:58:01.568Z,22.29
2023-05-05T03:00:38.480Z,22.26
2023-05-05T03:03:09.299Z,22.27
2023-05-05T03:05:38.119Z,22.25
2023-05-05T03:08:08.784Z,22.24
2023-05-05T03:10:36.366Z,22.21
2023-05-05T03:13:02.720Z,22.21
2023-05-05T03:15:30.632Z,22.21
2023-05-05T03:17:56.992Z,22.19
2023-05-05T03:20:23.299Z,22.19
2023-05-05T03:22:49.628Z,22.17
2023-05-05T03:25:15.961Z,22.16
2023-05-05T03:27:42.283Z,22.13
2023-05-05T03:30:09.067Z,22.13
2023-05-05T03:32:35.622Z,22.10
2023-05-05T03:35:02.091Z,22.10
2023-05-05T03:37:28.413Z,22.11
2023-05-05T03:39:54.748Z,22.13
2023-05-05T03:42:21.106Z,22.15
2023-05-05T03:44:47.419Z,22.14
2023-05-05T03:47:13.741Z,22.14
2023-05-05T03:49:40.092Z,22.12
2023-05-05T03:52:06.522Z,22.11
2023-05-05T03:54:32.909Z,22.08
2023-05-05T03:56:59.913Z,22.08
2023-05-05T03:59:26.225Z,22.08
2023-05-05T04:01:52.535Z,22.12
2023-05-05T04:04:18.968Z,22.21
2023-05-05T04:06:45.489Z,22.26
2023-05-05T04:09:12.311Z,22.29
2023-05-05T04:11:38.651Z,22.29
2023-05-05T04:14:05.232Z,22.31
2023-05-05T04:16:31.656Z,22.32
2023-05-05T04:18:58.000Z,22.33
2023-05-05T04:21:24.303Z,22.35
2023-05-05T04:23:50.746Z,22.37
2023-05-05T04:26:17.072Z,22.39
2023-05-05T04:28:43.422Z,22.41
2023-05-05T04:31:10.518Z,22.40
2023-05-05T04:33:36.872Z,22.39
2023-05-05T04:36:03.195Z,22.36
2023-05-05T04:38:29.558Z,22.35
2023-05-05T04:40:55.925Z,22.34
2023-05-05T04:43:22.257Z,22.32
2023-05-05T04:45:52.022Z,22.32
2023-05-05T04:48:20.654Z,22.27
2023-05-05T04:50:47.062Z,22.28
2023-05-05T04:53:13.385Z,22.28
2023-05-05T04:55:39.699Z,22.26
2023-05-05T04:58:06.010Z,22.26
2023-05-05T05:00:32.495Z,22.26
2023-05-05T05:02:58.878Z,22.23
2023-05-05T05:05:25.289Z,22.25
2023-05-05T05:07:51.619Z,22.25
2023-05-05T05:10:18.169Z,22.26
2023-05-05T05:12:44.534Z,22.30
2023-05-05T05:15:11.081Z,22.31
2023-05-05T05:17:37.421Z,22.34
2023-05-05T05:20:04.963Z,22.41
2023-05-05T05:22:31.675Z,22.44
2023-05-05T05:24:57.990Z,22.43
2023-05-05T05:27:24.696Z,22.47
2023-05-05T05:29:51.310Z,22.46
2023-05-05T05:32:17.755Z,22.51
2023-05-05T05:34:44.184Z,22.57
2023-05-05T05:37:10.492Z,22.57
2023-05-05T05:39:36.818Z,22.62
2023-05-05T05:42:03.532Z,22.63
2023-05-05T05:44:29.889Z,22.66
2023-05-05T05:46:56.280Z,22.68
2023-05-05T05:49:22.597Z,22.69
2023-05-05T05:51:48.911Z,22.70
2023-05-05T05:54:15.276Z,22.73
2023-05-05T05:56:41.602Z,22.70
2023-05-05T05:59:09.996Z,22.71
2023-05-05T06:01:36.800Z,22.74
2023-05-05T06:04:03.203Z,22.78
2023-05-05T06:06:29.628Z,22.79
2023-05-05T06:08:55.938Z,22.78
2023-05-05T06:11:22.474Z,22.76
2023-05-05T06:13:48.802Z,22.75
2023-05-05T06:16:15.235Z,22.75
2023-05-05T06:18:41.581Z,22.74
2023-05-05T06:21:07.891Z,22.75
2023-05-05T06:23:34.209Z,22.81
2023-05-05T06:26:00.564Z,22.80
2023-05-05T06:28:26.915Z,22.80
2023-05-05T06:30:53.236Z,22.78
2023-05-05T06:33:19.566Z,22.76
2023-05-05T06:35:47.082Z,22.77
2023-05-05T06:38:13.411Z,22.78
2023-05-05T06:40:39.783Z,22.80
2023-05-05T06:43:06.123Z,22.78
2023-05-05T06:45:32.553Z,22.79
2023-05-05T06:47:58.997Z,22.79
2023-05-05T06:50:25.343Z,22.82
2023-05-05T06:52:53.087Z,22.83
2023-05-05T06:55:19.569Z,22.87
2023-05-05T06:57:45.904Z,22.98
2023-05-05T07:00:13.868Z,23.02
2023-05-05T07:02:40.486Z,23.11
2023-05-05T07:05:06.934Z,23.19
2023-05-05T07:07:33.259Z,23.30
2023-05-05T07:09:59.580Z,23.31
2023-05-05T07:12:26.105Z,23.24
2023-05-05T07:14:52.445Z,23.18
2023-05-05T07:17:18.759Z,23.11
2023-05-05T07:19:45.083Z,23.03
2023-05-05T07:22:11.445Z,22.99
2023-05-05T07:24:37.777Z,22.93
2023-05-05T07:27:04.131Z,22.93
2023-05-05T07:29:30.658Z,22.93
2023-05-05T07:31:57.007Z,22.85
2023-05-05T07:34:23.346Z,22.81
2023-05-05T07:36:49.668Z,22.75
2023-05-05T07:39:16.023Z,22.36
2023-05-05T07:41:42.584Z,21.98
2023-05-05T07:44:08.891Z,21.64
2023-05-05T07:46:35.248Z,22.03
2023-05-05T07:49:01.662Z,22.11
2023-05-05T07:51:27.953Z,22.15
2023-05-05T07:53:54.964Z,22.20
2023-05-05T07:56:21.922Z,22.20
2023-05-05T07:58:48.250Z,22.20
2023-05-05T08:01:14.576Z,22.17
2023-05-05T08:03:41.327Z,22.06
2023-05-05T08:06:11.330Z,22.03
2023-05-05T08:08:37.742Z,22.15
2023-05-05T08:11:04.054Z,22.13
2023-05-05T08:13:30.396Z,22.11
2023-05-05T08:15:56.900Z,22.11
2023-05-05T08:18:24.386Z,22.19
2023-05-05T08:20:50.670Z,22.25
2023-05-05T08:23:17.231Z,22.28
2023-05-05T08:25:43.526Z,22.27
2023-05-05T08:28:09.896Z,22.26
2023-05-05T08:30:36.535Z,22.27
2023-05-05T08:33:02.833Z,22.27
2023-05-05T08:35:29.142Z,22.32
2023-05-05T08:37:58.121Z,22.29
2023-05-05T08:40:27.032Z,22.27
2023-05-05T08:42:53.349Z,22.30
2023-05-05T08:45:19.704Z,22.28
2023-05-05T08:47:46.173Z,22.29
2023-05-05T08:50:12.591Z,22.29
2023-05-05T08:52:40.380Z,22.27
2023-05-05T08:55:33.392Z,22.27
2023-05-05T08:58:08.396Z,22.31
2023-05-05T09:00:34.728Z,22.32
2023-05-05T09:03:01.381Z,22.32
2023-05-05T09:05:27.900Z,22.31
2023-05-05T09:07:54.304Z,22.31
2023-05-05T09:10:20.914Z,22.34
2023-05-05T09:12:47.472Z,22.33
2023-05-05T09:15:14.083Z,22.33
2023-05-05T09:17:40.557Z,22.33
2023-05-05T09:20:07.398Z,22.33
2023-05-05T09:22:37.361Z,22.33
2023-05-05T09:25:04.254Z,22.34
2023-05-05T09:27:30.601Z,22.35
2023-05-05T09:29:57.350Z,22.39
2023-05-05T09:32:23.714Z,22.42
2023-05-05T09:34:59.617Z,22.45
2023-05-05T09:37:29.419Z,22.47
2023-05-05T09:39:55.834Z,22.47
2023-05-05T09:42:22.286Z,22.51
2023-05-05T09:44:48.838Z,22.55
2023-05-05T09:47:28.509Z,22.59
2023-05-05T09:49:59.014Z,22.66
2023-05-05T09:52:25.652Z,22.69
2023-05-05T09:54:56.137Z,22.67
2023-05-05T09:57:26.105Z,22.68
2023-05-05T09:59:57.240Z,22.69
2023-05-05T10:02:29.778Z,22.72
2023-05-05T10:05:09.412Z,22.79
2023-05-05T10:07:36.822Z,22.85
2023-05-05T10:10:07.090Z,22.91
2023-05-05T10:12:37.020Z,22.96
2023-05-05T10:15:03.946Z,23.03
2023-05-05T10:17:31.316Z,23.06
2023-05-05T10:19:57.951Z,23.07
2023-05-05T10:22:24.284Z,23.09
2023-05-05T10:24:51.151Z,23.10
2023-05-05T10:27:19.159Z,23.09
2023-05-05T10:29:48.357Z,23.09
2023-05-05T10:32:53.197Z,23.09
2023-05-05T10:35:22.100Z,23.10
2023-05-05T10:37:48.523Z,23.10
2023-05-05T10:40:14.983Z,23.11
2023-05-05T10:42:41.337Z,23.11
2023-05-05T10:45:07.936Z,23.14
2023-05-05T10:47:34.793Z,23.18
2023-05-05T10:50:04.243Z,23.21
2023-05-05T10:52:35.412Z,23.24
2023-05-05T10:55:09.511Z,23.28
2023-05-05T10:57:37.025Z,23.29
2023-05-05T11:00:04.324Z,23.33
2023-05-05T11:02:31.569Z,23.35
2023-05-05T11:05:16.653Z,23.38
2023-05-05T11:07:46.319Z,23.39
2023-05-05T11:10:13.224Z,23.45
2023-05-05T11:13:03.614Z,23.42
2023-05-05T11:15:30.245Z,23.45
2023-05-05T11:17:57.420Z,23.43
2023-05-05T11:20:36.800Z,23.43
2023-05-05T11:23:03.269Z,23.45
2023-05-05T11:25:36.279Z,23.11
2023-05-05T11:28:09.416Z,22.99
2023-05-05T11:30:36.096Z,23.00
2023-05-05T11:33:21.248Z,23.04
2023-05-05T11:36:14.005Z,23.01
2023-05-05T11:38:58.988Z,22.98
2023-05-05T11:41:31.170Z,22.97
2023-05-05T11:44:09.649Z,23.00
2023-05-05T11:46:36.177Z,23.05
2023-05-05T11:49:02.610Z,23.06
2023-05-05T11:51:28.928Z,22.95
2023-05-05T11:53:56.017Z,22.94
2023-05-05T11:56:23.777Z,23.04
2023-05-05T11:59:08.201Z,23.24
2023-05-05T12:01:34.918Z,23.38
2023-05-05T12:04:01.470Z,23.46
2023-05-05T12:06:29.800Z,23.49
2023-05-05T12:08:56.178Z,23.51
2023-05-05T12:11:23.172Z,23.50
2023-05-05T12:13:49.505Z,23.50
2023-05-05T12:16:15.960Z,23.51
2023-05-05T12:18:42.381Z,23.49
2023-05-05T12:21:14.853Z,23.42
2023-05-05T12:23:41.195Z,23.44
2023-05-05T12:26:08.023Z,23.44
2023-05-05T12:28:44.569Z,23.44
2023-05-05T12:31:11.610Z,23.45
2023-05-05T12:33:41.100Z,23.44
2023-05-05T12:36:07.750Z,23.46
2023-05-05T12:38:34.825Z,23.47
2023-05-05T12:41:01.179Z,23.47
2023-05-05T12:43:28.342Z,23.49
2023-05-05T12:46:07.634Z,23.51
2023-05-05T12:48:34.531Z,23.53
2023-05-05T12:51:11.037Z,23.52
2023-05-05T12:53:37.395Z,23.50
2023-05-05T12:56:03.763Z,23.50
2023-05-05T12:58:46.270Z,23.49
2023-05-05T13:01:12.668Z,23.50
2023-05-05T13:03:39.001Z,23.49
2023-05-05T13:06:21.137Z,23.49
2023-05-05T13:08:48.065Z,23.47
2023-05-05T13:11:14.392Z,23.46
2023-05-05T13:13:42.098Z,23.45
2023-05-05T13:16:08.481Z,23.47
2023-05-05T13:18:47.414Z,23.45
2023-05-05T13:21:13.836Z,23.46
2023-05-05T13:23:44.138Z,23.45
2023-05-05T13:26:10.801Z,23.45
2023-05-05T13:28:37.176Z,23.44
2023-05-05T13:31:03.551Z,23.44
2023-05-05T13:33:29.937Z,23.42
2023-05-05T13:35:56.259Z,23.41
2023-05-05T13:38:22.659Z,23.41
2023-05-05T13:40:48.972Z,23.39
2023-05-05T13:43:15.332Z,23.37
2023-05-05T13:45:42.114Z,23.35
2023-05-05T13:50:34.785Z,23.26
2023-05-05T13:53:01.171Z,23.25
2023-05-05T13:55:30.527Z,23.21
2023-05-05T13:57:56.861Z,23.17
2023-05-05T14:00:23.234Z,23.17
2023-05-05T14:02:49.607Z,23.17
2023-05-05T14:05:16.268Z,23.16
2023-05-05T14:07:42.966Z,23.13
2023-05-05T14:10:09.651Z,23.11
2023-05-05T14:12:35.969Z,23.09
2023-05-05T14:15:02.629Z,23.09
2023-05-05T14:17:28.990Z,23.08
2023-05-05T14:19:55.667Z,23.08
2023-05-05T14:22:21.955Z,23.07
2023-05-05T14:24:48.253Z,23.05
2023-05-05T14:27:14.529Z,23.03
2023-05-05T14:29:40.849Z,23.01
2023-05-05T14:32:07.206Z,22.97
2023-05-05T14:34:33.547Z,22.97
2023-05-05T14:36:59.862Z,22.93
2023-05-05T14:39:26.166Z,22.91
2023-05-05T14:41:52.452Z,22.90
2023-05-05T14:44:18.749Z,22.89
2023-05-05T14:46:46.348Z,22.88
2023-05-05T14:49:13.125Z,22.88
2023-05-05T14:51:39.404Z,22.86
2023-05-05T14:54:09.484Z,22.86
2023-05-05T14:56:43.656Z,22.87
2023-05-05T14:59:09.960Z,22.86
2023-05-05T15:01:37.185Z,22.84
2023-05-05T15:04:03.610Z,22.84
2023-05-05T15:06:29.943Z,22.83
2023-05-05T15:08:57.019Z,22.82
2023-05-05T15:11:23.315Z,22.80
2023-05-05T15:13:49.594Z,22.80
2023-05-05T15:16:15.935Z,22.77
2023-05-05T15:18:42.219Z,22.75
2023-05-05T15:21:08.540Z,22.74
2023-05-05T15:23:34.855Z,22.73
2023-05-05T15:26:01.280Z,22.73
2023-05-05T15:28:27.557Z,22.72
2023-05-05T15:30:54.010Z,22.72
2023-05-05T15:33:20.294Z,22.73
2023-05-05T15:35:46.614Z,22.73
2023-05-05T15:38:12.891Z,22.71
2023-05-05T15:40:39.218Z,22.75
2023-05-05T15:43:05.550Z,22.75
2023-05-05T15:45:31.881Z,22.75
2023-05-05T15:47:58.266Z,22.73
2023-05-05T15:50:24.582Z,22.74
2023-05-05T15:52:51.081Z,22.72
2023-05-05T15:55:17.547Z,22.73
2023-05-05T15:57:44.197Z,22.73
2023-05-05T16:00:10.698Z,22.73
2023-05-05T16:02:37.094Z,22.72
2023-05-05T16:05:03.497Z,22.71
2023-05-05T16:07:29.825Z,22.69
2023-05-05T16:09:56.848Z,22.69
2023-05-05T16:12:23.256Z,22.68
2023-05-05T16:14:49.568Z,22.68
2023-05-05T16:17:15.892Z,22.66
2023-05-05T16:19:42.213Z,22.66
2023-05-05T16:22:08.534Z,22.67
2023-05-05T16:24:34.842Z,22.65
2023-05-05T16:27:01.166Z,22.64
2023-05-05T16:29:27.541Z,22.63
2023-05-05T16:31:53.883Z,22.64
2023-05-05T16:34:20.282Z,22.63
2023-05-05T16:36:46.622Z,22.61
2023-05-05T16:39:13.633Z,22.61
2023-05-05T16:41:40.283Z,22.62
2023-05-05T16:44:06.860Z,22.61
2023-05-05T16:46:37.130Z,22.62
2023-05-05T16:49:03.780Z,22.60
2023-05-05T16:51:30.158Z,22.60
2023-05-05T16:53:56.488Z,22.59
2023-05-05T16:56:22.824Z,22.59
2023-05-05T16:58:49.151Z,22.59
2023-05-05T17:01:15.533Z,22.60
2023-05-05T17:03:41.908Z,22.59
2023-05-05T17:06:08.466Z,22.59
2023-05-05T17:08:34.828Z,22.57
2023-05-05T17:11:01.143Z,22.59
2023-05-05T17:13:27.461Z,22.61
2023-05-05T17:15:53.831Z,22.60
2023-05-05T17:18:22.580Z,22.60
2023-05-05T17:20:49.029Z,22.60
2023-05-05T17:23:16.574Z,22.60
2023-05-05T17:25:42.996Z,22.60
2023-05-05T17:28:09.315Z,22.59
2023-05-05T17:30:37.479Z,22.58
2023-05-05T17:33:03.837Z,22.58
2023-05-05T17:35:30.202Z,22.56
2023-05-05T17:37:56.680Z,22.57
2023-05-05T17:40:23.063Z,22.57
2023-05-05T17:42:49.388Z,22.58
2023-05-05T17:45:15.970Z,22.56
2023-05-05T17:47:42.316Z,22.56
2023-05-05T17:50:11.337Z,22.56
2023-05-05T17:52:38.193Z,22.55
2023-05-05T17:55:04.683Z,22.56
2023-05-05T17:57:31.163Z,22.57
2023-05-05T17:59:58.517Z,22.56
2023-05-05T18:02:25.145Z,22.57
2023-05-05T18:04:53.090Z,22.56
2023-05-05T18:07:19.398Z,22.55
2023-05-05T18:09:47.188Z,22.56
2023-05-05T18:12:15.582Z,22.55
2023-05-05T18:14:42.120Z,22.54
2023-05-05T18:17:09.285Z,22.53
2023-05-05T18:19:35.609Z,22.53
2023-05-05T18:22:01.948Z,22.53
2023-05-05T18:24:28.612Z,22.52
2023-05-05T18:26:54.963Z,22.49
2023-05-05T18:29:23.975Z,22.54
2023-05-05T18:31:53.673Z,22.56
2023-05-05T18:34:21.568Z,22.56
2023-05-05T18:36:47.939Z,22.59
2023-05-05T18:39:14.464Z,22.56
2023-05-05T18:41:41.047Z,22.61
2023-05-05T18:44:07.418Z,22.60
2023-05-05T18:46:33.816Z,22.60
2023-05-05T18:49:00.899Z,22.62
2023-05-05T18:51:27.844Z,22.64
2023-05-05T18:53:54.572Z,22.63
2023-05-05T18:56:21.548Z,22.60
2023-05-05T18:58:48.194Z,22.60
2023-05-05T19:01:14.635Z,22.57
2023-05-05T19:03:42.364Z,22.54
2023-05-05T19:06:08.941Z,22.53
2023-05-05T19:08:35.324Z,22.52
2023-05-05T19:11:01.683Z,22.52
2023-05-05T19:13:28.033Z,22.51
2023-05-05T19:15:57.393Z,22.51
2023-05-05T19:18:24.278Z,22.47
2023-05-05T19:20:50.926Z,22.45
2023-05-05T19:23:17.726Z,22.48
2023-05-05T19:25:44.078Z,22.46
2023-05-05T19:28:12.000Z,22.45
2023-05-05T19:30:38.318Z,22.46
2023-05-05T19:33:04.794Z,22.47
2023-05-05T19:35:31.303Z,22.45
2023-05-05T19:37:57.669Z,22.45
2023-05-05T19:40:24.060Z,22.45
2023-05-05T19:42:51.399Z,22.45
2023-05-05T19:45:17.788Z,22.46
2023-05-05T19:47:44.639Z,22.47
2023-05-05T19:50:11.643Z,22.48
2023-05-05T19:52:38.411Z,22.49
2023-05-05T19:55:06.008Z,22.49
2023-05-05T19:57:32.339Z,22.51
2023-05-05T19:59:58.680Z,22.52
2023-05-05T20:02:27.325Z,22.49
2023-05-05T20:04:54.080Z,22.51
2023-05-05T20:07:20.837Z,22.48
2023-05-05T20:09:48.562Z,22.47
2023-05-05T20:12:16.835Z,22.47
2023-05-05T20:14:44.207Z,22.46
2023-05-05T20:17:11.808Z,22.46
2023-05-05T20:19:38.585Z,22.45
2023-05-05T20:22:04.910Z,22.43
2023-05-05T20:24:32.142Z,22.44
2023-05-05T20:26:58.797Z,22.44
2023-05-05T20:29:25.358Z,22.43
2023-05-05T20:31:51.726Z,22.42
2023-05-05T20:34:18.149Z,22.42
2023-05-05T20:36:47.705Z,22.39
2023-05-05T20:39:14.511Z,22.35
2023-05-05T20:41:41.631Z,22.39
2023-05-05T20:44:10.113Z,22.41
2023-05-05T20:46:36.687Z,22.38
2023-05-05T20:49:03.391Z,22.40
2023-05-05T20:51:31.999Z,22.39
2023-05-05T20:53:58.377Z,22.39
2023-05-05T20:56:24.688Z,22.39
2023-05-05T20:58:51.008Z,22.40
2023-05-05T21:01:17.437Z,22.38
2023-05-05T21:03:43.870Z,22.38
2023-05-05T21:06:10.197Z,22.38
2023-05-05T21:08:36.741Z,22.38
2023-05-05T21:11:03.054Z,22.35
2023-05-05T21:13:29.446Z,22.35
2023-05-05T21:15:55.861Z,22.34
2023-05-05T21:18:22.290Z,22.34
2023-05-05T21:20:49.608Z,22.34
2023-05-05T21:23:16.013Z,22.35
2023-05-05T21:25:42.549Z,22.34
2023-05-05T21:28:08.894Z,22.34
2023-05-05T21:30:35.507Z,22.32
2023-05-05T21:33:01.879Z,22.27
2023-05-05T21:35:28.216Z,22.28
2023-05-05T21:37:56.290Z,22.27
2023-05-05T21:40:22.920Z,22.28
2023-05-05T21:42:49.229Z,22.27
2023-05-05T21:45:16.000Z,22.27
2023-05-05T21:47:42.428Z,22.27
2023-05-05T21:50:10.084Z,22.26
2023-05-05T21:52:37.697Z,22.26
2023-05-05T21:55:04.180Z,22.24
2023-05-05T21:57:30.499Z,22.24
2023-05-05T21:59:56.815Z,22.24
2023-05-05T22:02:25.289Z,22.21
2023-05-05T22:04:53.737Z,22.22
2023-05-05T22:07:20.083Z,22.20
2023-05-05T22:09:46.480Z,22.22
2023-05-05T22:12:13.060Z,22.25
2023-05-05T22:14:40.204Z,22.23
2023-05-05T22:17:06.648Z,22.23
2023-05-05T22:19:33.335Z,22.23
2023-05-05T22:21:59.745Z,22.23
2023-05-05T22:24:26.565Z,22.22
2023-05-05T22:26:55.564Z,22.23
2023-05-05T22:29:25.511Z,22.22
2023-05-05T22:31:51.890Z,22.19
2023-05-05T22:34:19.720Z,22.21
2023-05-05T22:36:48.428Z,22.20
2023-05-05T22:39:14.741Z,22.20
2023-05-05T22:41:41.103Z,22.20
2023-05-05T22:44:07.671Z,22.18
2023-05-05T22:46:34.020Z,22.19
2023-05-05T22:49:01.702Z,22.19
2023-05-05T22:51:28.058Z,22.19
2023-05-05T22:53:54.382Z,22.20
2023-05-05T22:56:20.876Z,22.18
2023-05-05T22:58:47.522Z,22.19
2023-05-05T23:01:14.073Z,22.19
2023-05-05T23:03:41.455Z,22.19
2023-05-05T23:06:07.806Z,22.19
2023-05-05T23:08:34.127Z,22.20
2023-05-05T23:11:00.806Z,22.20
2023-05-05T23:13:28.164Z,22.20
2023-05-05T23:15:54.519Z,22.20
2023-05-05T23:18:20.839Z,22.20
2023-05-05T23:20:47.170Z,22.20
2023-05-05T23:23:13.497Z,22.20
2023-05-05T23:25:40.162Z,22.24
2023-05-05T23:28:06.524Z,22.21
2023-05-05T23:30:33.181Z,22.18
2023-05-05T23:33:00.840Z,22.16
2023-05-05T23:35:28.333Z,22.15
2023-05-05T23:37:55.695Z,22.15
2023-05-05T23:40:22.244Z,22.14
2023-05-05T23:42:48.587Z,22.13
2023-05-05T23:45:15.982Z,22.14
2023-05-05T23:47:43.396Z,22.13
2023-05-05T23:50:09.776Z,22.12
2023-05-05T23:52:37.286Z,22.11
2023-05-05T23:55:03.636Z,22.11
2023-05-05T23:57:30.098Z,22.09
2023-05-05T23:59:58.213Z,22.09
